sensor_id;sensor_type;location;lat;lon;timestamp;temperature;humidity
18694;DHT22;9477;51.414;10.362;2023-05-07T00:01:45;15.70;83.10
18694;DHT22;9477;51.414;10.362;2023-05-07T00:03:48;15.60;83.00
18694;DHT22;9477;51.414;10.362;2023-05-07T00:05:51;15.60;83.20
18694;DHT22;9477;51.414;10.362;2023-05-07T00:07:54;15.60;83.30
18694;DHT22;9477;51.414;10.362;2023-05-07T00:10:01;15.60;83.40
18694;DHT22;9477;51.414;10.362;2023-05-07T00:12:04;15.60;83.40
18694;DHT22;9477;51.414;10.362;2023-05-07T00:14:07;15.60;83.30
18694;DHT22;9477;51.414;10.362;2023-05-07T00:16:10;15.50;83.60
18694;DHT22;9477;51.414;10.362;2023-05-07T00:18:13;15.50;83.60
18694;DHT22;9477;51.414;10.362;2023-05-07T00:20:15;15.40;83.80
18694;DHT22;9477;51.414;10.362;2023-05-07T00:22:18;15.40;83.90
18694;DHT22;9477;51.414;10.362;2023-05-07T00:24:22;15.40;84.00
18694;DHT22;9477;51.414;10.362;2023-05-07T00:26:26;15.40;84.10
18694;DHT22;9477;51.414;10.362;2023-05-07T00:28:29;15.50;84.20
18694;DHT22;9477;51.414;10.362;2023-05-07T00:30:33;15.40;84.10
18694;DHT22;9477;51.414;10.362;2023-05-07T00:32:35;15.40;84.30
18694;DHT22;9477;51.414;10.362;2023-05-07T00:34:39;15.40;84.40
18694;DHT22;9477;51.414;10.362;2023-05-07T00:36:42;15.30;84.40
18694;DHT22;9477;51.414;10.362;2023-05-07T00:38:44;15.30;84.70
18694;DHT22;9477;51.414;10.362;2023-05-07T00:40:47;15.20;84.90
18694;DHT22;9477;51.414;10.362;2023-05-07T00:42:51;15.20;84.90
18694;DHT22;9477;51.414;10.362;2023-05-07T00:44:58;15.20;84.80
18694;DHT22;9477;51.414;10.362;2023-05-07T00:47:02;15.20;85.00
18694;DHT22;9477;51.414;10.362;2023-05-07T00:49:06;15.10;85.00
18694;DHT22;9477;51.414;10.362;2023-05-07T00:51:09;15.10;85.10
18694;DHT22;9477;51.414;10.362;2023-05-07T00:53:13;15.00;85.20
18694;DHT22;9477;51.414;10.362;2023-05-07T00:55:16;15.00;85.30
18694;DHT22;9477;51.414;10.362;2023-05-07T00:57:20;15.00;85.40
18694;DHT22;9477;51.414;10.362;2023-05-07T00:59:25;15.10;85.40
18694;DHT22;9477;51.414;10.362;2023-05-07T01:01:28;15.10;85.50
18694;DHT22;9477;51.414;10.362;2023-05-07T01:03:31;15.10;85.30
18694;DHT22;9477;51.414;10.362;2023-05-07T01:05:35;15.00;85.10
18694;DHT22;9477;51.414;10.362;2023-05-07T01:07:40;15.00;85.10
18694;DHT22;9477;51.414;10.362;2023-05-07T01:09:43;14.90;85.10
18694;DHT22;9477;51.414;10.362;2023-05-07T01:11:47;14.90;85.50
18694;DHT22;9477;51.414;10.362;2023-05-07T01:13:50;14.90;85.60
18694;DHT22;9477;51.414;10.362;2023-05-07T01:15:55;14.70;85.50
18694;DHT22;9477;51.414;10.362;2023-05-07T01:17:58;14.70;85.50
18694;DHT22;9477;51.414;10.362;2023-05-07T01:20:01;14.70;85.60
18694;DHT22;9477;51.414;10.362;2023-05-07T01:22:08;14.70;85.60
18694;DHT22;9477;51.414;10.362;2023-05-07T01:24:14;14.70;85.70
18694;DHT22;9477;51.414;10.362;2023-05-07T01:26:17;14.70;85.60
18694;DHT22;9477;51.414;10.362;2023-05-07T01:28:21;14.80;85.40
18694;DHT22;9477;51.414;10.362;2023-05-07T01:30:24;14.80;85.40
18694;DHT22;9477;51.414;10.362;2023-05-07T01:32:30;14.70;85.20
18694;DHT22;9477;51.414;10.362;2023-05-07T01:34:36;14.60;85.20
18694;DHT22;9477;51.414;10.362;2023-05-07T01:36:40;14.60;85.30
18694;DHT22;9477;51.414;10.362;2023-05-07T01:38:45;14.50;85.50
18694;DHT22;9477;51.414;10.362;2023-05-07T01:40:49;14.50;85.80
18694;DHT22;9477;51.414;10.362;2023-05-07T01:42:54;14.50;86.00
18694;DHT22;9477;51.414;10.362;2023-05-07T01:44:57;14.40;86.00
18694;DHT22;9477;51.414;10.362;2023-05-07T01:47:01;14.50;86.10
18694;DHT22;9477;51.414;10.362;2023-05-07T01:49:04;14.50;86.40
18694;DHT22;9477;51.414;10.362;2023-05-07T01:51:08;14.50;86.20
18694;DHT22;9477;51.414;10.362;2023-05-07T01:53:11;14.50;86.40
18694;DHT22;9477;51.414;10.362;2023-05-07T01:55:14;14.40;86.50
18694;DHT22;9477;51.414;10.362;2023-05-07T01:57:18;14.40;86.60
18694;DHT22;9477;51.414;10.362;2023-05-07T01:59:21;14.40;86.90
18694;DHT22;9477;51.414;10.362;2023-05-07T02:01:24;14.40;87.10
18694;DHT22;9477;51.414;10.362;2023-05-07T02:03:27;14.40;86.90
18694;DHT22;9477;51.414;10.362;2023-05-07T02:05:30;14.50;86.90
18694;DHT22;9477;51.414;10.362;2023-05-07T02:07:32;14.40;86.70
18694;DHT22;9477;51.414;10.362;2023-05-07T02:09:35;14.40;87.00
18694;DHT22;9477;51.414;10.362;2023-05-07T02:11:38;14.40;87.10
18694;DHT22;9477;51.414;10.362;2023-05-07T02:13:42;14.40;87.30
18694;DHT22;9477;51.414;10.362;2023-05-07T02:15:46;14.30;87.40
18694;DHT22;9477;51.414;10.362;2023-05-07T02:17:59;14.20;87.80
18694;DHT22;9477;51.414;10.362;2023-05-07T02:20:03;14.20;87.70
18694;DHT22;9477;51.414;10.362;2023-05-07T02:22:06;14.20;87.80
18694;DHT22;9477;51.414;10.362;2023-05-07T02:24:09;14.10;87.90
18694;DHT22;9477;51.414;10.362;2023-05-07T02:26:12;14.20;88.10
18694;DHT22;9477;51.414;10.362;2023-05-07T02:28:15;14.20;88.30
18694;DHT22;9477;51.414;10.362;2023-05-07T02:30:19;14.10;88.40
18694;DHT22;9477;51.414;10.362;2023-05-07T02:32:22;14.20;88.40
18694;DHT22;9477;51.414;10.362;2023-05-07T02:34:26;14.20;88.60
18694;DHT22;9477;51.414;10.362;2023-05-07T02:36:29;14.10;88.70
18694;DHT22;9477;51.414;10.362;2023-05-07T02:38:32;14.10;88.90
18694;DHT22;9477;51.414;10.362;2023-05-07T02:40:34;14.10;88.90
18694;DHT22;9477;51.414;10.362;2023-05-07T02:42:40;14.20;89.30
18694;DHT22;9477;51.414;10.362;2023-05-07T02:44:43;14.20;88.70
18694;DHT22;9477;51.414;10.362;2023-05-07T02:46:47;14.10;88.80
18694;DHT22;9477;51.414;10.362;2023-05-07T02:48:50;14.00;88.80
18694;DHT22;9477;51.414;10.362;2023-05-07T02:50:53;14.10;88.90
18694;DHT22;9477;51.414;10.362;2023-05-07T02:52:55;14.10;88.70
18694;DHT22;9477;51.414;10.362;2023-05-07T02:54:58;14.20;88.70
18694;DHT22;9477;51.414;10.362;2023-05-07T02:57:01;14.30;88.80
18694;DHT22;9477;51.414;10.362;2023-05-07T02:59:04;14.40;88.50
18694;DHT22;9477;51.414;10.362;2023-05-07T03:01:07;14.40;88.10
18694;DHT22;9477;51.414;10.362;2023-05-07T03:03:12;14.30;88.10
18694;DHT22;9477;51.414;10.362;2023-05-07T03:05:15;14.30;87.90
18694;DHT22;9477;51.414;10.362;2023-05-07T03:07:18;14.20;87.90
18694;DHT22;9477;51.414;10.362;2023-05-07T03:09:21;14.20;88.20
18694;DHT22;9477;51.414;10.362;2023-05-07T03:11:24;14.20;88.10
18694;DHT22;9477;51.414;10.362;2023-05-07T03:13:27;14.20;88.00
18694;DHT22;9477;51.414;10.362;2023-05-07T03:15:30;14.10;87.90
18694;DHT22;9477;51.414;10.362;2023-05-07T03:17:32;14.00;88.10
18694;DHT22;9477;51.414;10.362;2023-05-07T03:19:36;13.80;88.30
18694;DHT22;9477;51.414;10.362;2023-05-07T03:21:39;13.90;89.40
18694;DHT22;9477;51.414;10.362;2023-05-07T03:23:42;14.00;88.60
18694;DHT22;9477;51.414;10.362;2023-05-07T03:25:45;13.90;88.70
18694;DHT22;9477;51.414;10.362;2023-05-07T03:27:48;14.00;88.60
18694;DHT22;9477;51.414;10.362;2023-05-07T03:29:50;14.00;88.50
18694;DHT22;9477;51.414;10.362;2023-05-07T03:31:53;14.00;88.20
18694;DHT22;9477;51.414;10.362;2023-05-07T03:33:57;14.00;88.40
18694;DHT22;9477;51.414;10.362;2023-05-07T03:36:01;13.90;88.40
18694;DHT22;9477;51.414;10.362;2023-05-07T03:38:04;14.00;88.50
18694;DHT22;9477;51.414;10.362;2023-05-07T03:40:07;14.00;88.50
18694;DHT22;9477;51.414;10.362;2023-05-07T03:42:12;14.00;88.30
18694;DHT22;9477;51.414;10.362;2023-05-07T03:44:15;14.00;88.50
18694;DHT22;9477;51.414;10.362;2023-05-07T03:46:18;14.00;88.30
18694;DHT22;9477;51.414;10.362;2023-05-07T03:48:21;13.90;88.30
18694;DHT22;9477;51.414;10.362;2023-05-07T03:50:23;14.00;88.50
18694;DHT22;9477;51.414;10.362;2023-05-07T03:52:27;14.10;88.60
18694;DHT22;9477;51.414;10.362;2023-05-07T03:54:30;14.00;88.20
18694;DHT22;9477;51.414;10.362;2023-05-07T03:56:33;14.00;88.50
18694;DHT22;9477;51.414;10.362;2023-05-07T03:58:36;14.00;88.70
18694;DHT22;9477;51.414;10.362;2023-05-07T04:00:39;14.00;88.70
18694;DHT22;9477;51.414;10.362;2023-05-07T04:02:42;14.00;88.70
18694;DHT22;9477;51.414;10.362;2023-05-07T04:04:45;14.00;88.70
18694;DHT22;9477;51.414;10.362;2023-05-07T04:06:48;14.10;88.80
18694;DHT22;9477;51.414;10.362;2023-05-07T04:08:53;14.00;88.50
18694;DHT22;9477;51.414;10.362;2023-05-07T04:10:56;14.00;88.70
18694;DHT22;9477;51.414;10.362;2023-05-07T04:12:58;14.00;88.50
18694;DHT22;9477;51.414;10.362;2023-05-07T04:15:01;14.10;88.60
18694;DHT22;9477;51.414;10.362;2023-05-07T04:17:04;14.00;88.70
18694;DHT22;9477;51.414;10.362;2023-05-07T04:19:07;14.10;88.80
18694;DHT22;9477;51.414;10.362;2023-05-07T04:21:14;14.10;88.90
18694;DHT22;9477;51.414;10.362;2023-05-07T04:23:17;14.20;88.80
18694;DHT22;9477;51.414;10.362;2023-05-07T04:25:21;14.30;88.70
18694;DHT22;9477;51.414;10.362;2023-05-07T04:27:28;14.20;88.50
18694;DHT22;9477;51.414;10.362;2023-05-07T04:29:31;14.10;88.60
18694;DHT22;9477;51.414;10.362;2023-05-07T04:31:34;14.10;88.70
18694;DHT22;9477;51.414;10.362;2023-05-07T04:33:36;14.20;88.80
18694;DHT22;9477;51.414;10.362;2023-05-07T04:35:39;14.20;88.70
18694;DHT22;9477;51.414;10.362;2023-05-07T04:37:42;14.10;88.80
18694;DHT22;9477;51.414;10.362;2023-05-07T04:39:45;14.10;88.70
18694;DHT22;9477;51.414;10.362;2023-05-07T04:41:49;14.10;88.80
18694;DHT22;9477;51.414;10.362;2023-05-07T04:43:52;14.10;88.80
18694;DHT22;9477;51.414;10.362;2023-05-07T04:45:54;14.10;88.80
18694;DHT22;9477;51.414;10.362;2023-05-07T04:47:57;14.10;88.90
18694;DHT22;9477;51.414;10.362;2023-05-07T04:50:00;14.00;88.80
18694;DHT22;9477;51.414;10.362;2023-05-07T04:52:03;14.10;89.10
18694;DHT22;9477;51.414;10.362;2023-05-07T04:54:06;14.10;89.00
18694;DHT22;9477;51.414;10.362;2023-05-07T04:56:09;14.20;88.90
18694;DHT22;9477;51.414;10.362;2023-05-07T04:58:13;14.30;88.90
18694;DHT22;9477;51.414;10.362;2023-05-07T05:00:17;14.20;88.80
18694;DHT22;9477;51.414;10.362;2023-05-07T05:02:21;14.20;88.90
18694;DHT22;9477;51.414;10.362;2023-05-07T05:04:24;14.20;89.00
18694;DHT22;9477;51.414;10.362;2023-05-07T05:06:27;14.10;89.00
18694;DHT22;9477;51.414;10.362;2023-05-07T05:08:30;14.10;89.20
18694;DHT22;9477;51.414;10.362;2023-05-07T05:10:33;14.20;89.40
18694;DHT22;9477;51.414;10.362;2023-05-07T05:12:35;14.20;89.50
18694;DHT22;9477;51.414;10.362;2023-05-07T05:14:40;14.30;89.70
18694;DHT22;9477;51.414;10.362;2023-05-07T05:16:42;14.20;89.70
18694;DHT22;9477;51.414;10.362;2023-05-07T05:18:46;14.30;89.60
18694;DHT22;9477;51.414;10.362;2023-05-07T05:20:49;14.30;89.60
18694;DHT22;9477;51.414;10.362;2023-05-07T05:22:51;14.30;89.70
18694;DHT22;9477;51.414;10.362;2023-05-07T05:24:54;14.30;90.00
18694;DHT22;9477;51.414;10.362;2023-05-07T05:26:57;14.40;90.00
18694;DHT22;9477;51.414;10.362;2023-05-07T05:29:01;14.40;90.00
18694;DHT22;9477;51.414;10.362;2023-05-07T05:31:05;14.50;90.00
18694;DHT22;9477;51.414;10.362;2023-05-07T05:33:08;14.40;90.00
18694;DHT22;9477;51.414;10.362;2023-05-07T05:35:11;14.40;90.00
18694;DHT22;9477;51.414;10.362;2023-05-07T05:37:14;14.30;90.20
18694;DHT22;9477;51.414;10.362;2023-05-07T05:39:17;14.30;90.30
18694;DHT22;9477;51.414;10.362;2023-05-07T05:41:20;14.30;90.40
18694;DHT22;9477;51.414;10.362;2023-05-07T05:43:23;14.30;90.40
18694;DHT22;9477;51.414;10.362;2023-05-07T05:45:26;14.40;90.50
18694;DHT22;9477;51.414;10.362;2023-05-07T05:47:30;14.40;90.50
18694;DHT22;9477;51.414;10.362;2023-05-07T05:49:33;14.30;90.40
18694;DHT22;9477;51.414;10.362;2023-05-07T05:51:36;14.30;90.50
18694;DHT22;9477;51.414;10.362;2023-05-07T05:53:39;14.30;90.70
18694;DHT22;9477;51.414;10.362;2023-05-07T05:55:42;14.30;90.80
18694;DHT22;9477;51.414;10.362;2023-05-07T05:57:45;14.20;90.80
18694;DHT22;9477;51.414;10.362;2023-05-07T05:59:48;14.30;90.80
18694;DHT22;9477;51.414;10.362;2023-05-07T06:01:51;14.30;90.70
18694;DHT22;9477;51.414;10.362;2023-05-07T06:03:56;14.20;90.80
18694;DHT22;9477;51.414;10.362;2023-05-07T06:05:58;14.00;90.90
18694;DHT22;9477;51.414;10.362;2023-05-07T06:08:02;14.10;90.90
18694;DHT22;9477;51.414;10.362;2023-05-07T06:10:07;14.00;91.00
18694;DHT22;9477;51.414;10.362;2023-05-07T06:12:10;14.10;91.20
18694;DHT22;9477;51.414;10.362;2023-05-07T06:14:13;14.10;91.20
18694;DHT22;9477;51.414;10.362;2023-05-07T06:16:16;14.00;91.10
18694;DHT22;9477;51.414;10.362;2023-05-07T06:18:19;14.10;91.30
18694;DHT22;9477;51.414;10.362;2023-05-07T06:20:23;14.20;91.10
18694;DHT22;9477;51.414;10.362;2023-05-07T06:22:26;14.10;91.10
18694;DHT22;9477;51.414;10.362;2023-05-07T06:24:29;14.20;91.20
18694;DHT22;9477;51.414;10.362;2023-05-07T06:26:31;14.10;91.20
18694;DHT22;9477;51.414;10.362;2023-05-07T06:28:34;14.20;91.20
18694;DHT22;9477;51.414;10.362;2023-05-07T06:30:38;14.10;91.20
18694;DHT22;9477;51.414;10.362;2023-05-07T06:32:41;14.00;91.10
18694;DHT22;9477;51.414;10.362;2023-05-07T06:34:44;14.10;91.20
18694;DHT22;9477;51.414;10.362;2023-05-07T06:36:48;14.00;91.30
18694;DHT22;9477;51.414;10.362;2023-05-07T06:38:51;14.10;91.40
18694;DHT22;9477;51.414;10.362;2023-05-07T06:40:54;14.20;91.30
18694;DHT22;9477;51.414;10.362;2023-05-07T06:42:58;14.20;91.30
18694;DHT22;9477;51.414;10.362;2023-05-07T06:45:01;14.30;91.20
18694;DHT22;9477;51.414;10.362;2023-05-07T06:47:04;14.30;91.20
18694;DHT22;9477;51.414;10.362;2023-05-07T06:49:07;14.40;91.20
18694;DHT22;9477;51.414;10.362;2023-05-07T06:51:10;14.30;91.10
18694;DHT22;9477;51.414;10.362;2023-05-07T06:53:14;14.30;91.20
18694;DHT22;9477;51.414;10.362;2023-05-07T06:55:17;14.40;91.30
18694;DHT22;9477;51.414;10.362;2023-05-07T06:57:20;14.40;91.30
18694;DHT22;9477;51.414;10.362;2023-05-07T06:59:23;14.60;91.30
18694;DHT22;9477;51.414;10.362;2023-05-07T07:01:26;14.60;91.20
18694;DHT22;9477;51.414;10.362;2023-05-07T07:03:29;14.80;91.20
18694;DHT22;9477;51.414;10.362;2023-05-07T07:05:32;14.80;91.00
18694;DHT22;9477;51.414;10.362;2023-05-07T07:07:35;14.90;90.90
18694;DHT22;9477;51.414;10.362;2023-05-07T07:09:39;14.70;90.50
18694;DHT22;9477;51.414;10.362;2023-05-07T07:11:42;14.70;90.90
18694;DHT22;9477;51.414;10.362;2023-05-07T07:13:45;14.70;90.90
18694;DHT22;9477;51.414;10.362;2023-05-07T07:15:48;14.70;90.80
18694;DHT22;9477;51.414;10.362;2023-05-07T07:17:51;14.80;90.80
18694;DHT22;9477;51.414;10.362;2023-05-07T07:19:54;14.70;90.70
18694;DHT22;9477;51.414;10.362;2023-05-07T07:21:56;14.60;90.70
18694;DHT22;9477;51.414;10.362;2023-05-07T07:23:59;14.70;90.80
18694;DHT22;9477;51.414;10.362;2023-05-07T07:26:03;14.70;91.10
18694;DHT22;9477;51.414;10.362;2023-05-07T07:28:07;14.80;90.80
18694;DHT22;9477;51.414;10.362;2023-05-07T07:30:10;14.90;90.80
18694;DHT22;9477;51.414;10.362;2023-05-07T07:32:14;15.00;90.70
18694;DHT22;9477;51.414;10.362;2023-05-07T07:34:16;15.00;90.70
18694;DHT22;9477;51.414;10.362;2023-05-07T07:36:19;15.10;90.70
18694;DHT22;9477;51.414;10.362;2023-05-07T07:38:24;15.20;90.70
18694;DHT22;9477;51.414;10.362;2023-05-07T07:40:27;15.10;90.20
18694;DHT22;9477;51.414;10.362;2023-05-07T07:42:31;15.20;90.10
18694;DHT22;9477;51.414;10.362;2023-05-07T07:44:34;15.20;90.00
18694;DHT22;9477;51.414;10.362;2023-05-07T07:46:36;15.20;90.10
18694;DHT22;9477;51.414;10.362;2023-05-07T07:48:40;15.10;90.00
18694;DHT22;9477;51.414;10.362;2023-05-07T07:50:42;15.30;90.20
18694;DHT22;9477;51.414;10.362;2023-05-07T07:52:47;15.30;90.00
18694;DHT22;9477;51.414;10.362;2023-05-07T07:54:50;15.30;89.80
18694;DHT22;9477;51.414;10.362;2023-05-07T07:56:53;15.40;89.70
18694;DHT22;9477;51.414;10.362;2023-05-07T07:58:57;15.20;89.20
18694;DHT22;9477;51.414;10.362;2023-05-07T08:01:00;15.10;89.30
18694;DHT22;9477;51.414;10.362;2023-05-07T08:03:03;15.20;89.80
18694;DHT22;9477;51.414;10.362;2023-05-07T08:05:07;15.30;89.40
18694;DHT22;9477;51.414;10.362;2023-05-07T08:07:10;15.20;89.30
18694;DHT22;9477;51.414;10.362;2023-05-07T08:09:13;15.10;89.10
18694;DHT22;9477;51.414;10.362;2023-05-07T08:11:16;15.10;88.80
18694;DHT22;9477;51.414;10.362;2023-05-07T08:13:19;15.10;89.00
18694;DHT22;9477;51.414;10.362;2023-05-07T08:15:23;15.20;89.70
18694;DHT22;9477;51.414;10.362;2023-05-07T08:17:26;15.30;89.30
18694;DHT22;9477;51.414;10.362;2023-05-07T08:19:29;15.30;89.30
18694;DHT22;9477;51.414;10.362;2023-05-07T08:21:32;15.40;89.40
18694;DHT22;9477;51.414;10.362;2023-05-07T08:23:35;15.30;88.40
18694;DHT22;9477;51.414;10.362;2023-05-07T08:25:38;15.20;88.50
18694;DHT22;9477;51.414;10.362;2023-05-07T08:27:41;15.20;88.80
18694;DHT22;9477;51.414;10.362;2023-05-07T08:29:45;15.20;88.60
18694;DHT22;9477;51.414;10.362;2023-05-07T08:31:50;15.30;88.90
18694;DHT22;9477;51.414;10.362;2023-05-07T08:33:53;15.30;88.40
18694;DHT22;9477;51.414;10.362;2023-05-07T08:35:56;15.40;88.50
18694;DHT22;9477;51.414;10.362;2023-05-07T08:37:59;15.40;88.40
18694;DHT22;9477;51.414;10.362;2023-05-07T08:40:03;15.30;88.20
18694;DHT22;9477;51.414;10.362;2023-05-07T08:42:11;15.50;88.60
18694;DHT22;9477;51.414;10.362;2023-05-07T08:44:16;15.50;88.00
18694;DHT22;9477;51.414;10.362;2023-05-07T08:46:21;15.60;88.20
18694;DHT22;9477;51.414;10.362;2023-05-07T08:48:27;15.60;87.90
18694;DHT22;9477;51.414;10.362;2023-05-07T08:50:32;15.60;87.70
18694;DHT22;9477;51.414;10.362;2023-05-07T08:52:39;15.60;88.20
18694;DHT22;9477;51.414;10.362;2023-05-07T08:54:42;15.80;88.10
18694;DHT22;9477;51.414;10.362;2023-05-07T08:56:45;15.70;87.30
18694;DHT22;9477;51.414;10.362;2023-05-07T08:58:48;15.80;87.80
18694;DHT22;9477;51.414;10.362;2023-05-07T09:00:53;15.70;87.40
18694;DHT22;9477;51.414;10.362;2023-05-07T09:02:56;15.70;87.30
18694;DHT22;9477;51.414;10.362;2023-05-07T09:05:00;15.80;87.40
18694;DHT22;9477;51.414;10.362;2023-05-07T09:07:04;15.80;87.10
18694;DHT22;9477;51.414;10.362;2023-05-07T09:09:07;15.90;87.40
18694;DHT22;9477;51.414;10.362;2023-05-07T09:11:10;16.00;87.20
18694;DHT22;9477;51.414;10.362;2023-05-07T09:13:14;16.00;86.80
18694;DHT22;9477;51.414;10.362;2023-05-07T09:15:20;16.00;86.80
18694;DHT22;9477;51.414;10.362;2023-05-07T09:17:23;16.00;86.40
18694;DHT22;9477;51.414;10.362;2023-05-07T09:19:27;15.90;86.60
18694;DHT22;9477;51.414;10.362;2023-05-07T09:21:31;15.90;86.30
18694;DHT22;9477;51.414;10.362;2023-05-07T09:23:34;15.90;85.90
18694;DHT22;9477;51.414;10.362;2023-05-07T09:25:37;16.00;86.70
18694;DHT22;9477;51.414;10.362;2023-05-07T09:27:41;16.30;86.90
18694;DHT22;9477;51.414;10.362;2023-05-07T09:29:44;16.20;86.20
18694;DHT22;9477;51.414;10.362;2023-05-07T09:31:47;16.10;85.30
18694;DHT22;9477;51.414;10.362;2023-05-07T09:33:50;16.20;85.80
18694;DHT22;9477;51.414;10.362;2023-05-07T09:35:55;16.30;86.30
18694;DHT22;9477;51.414;10.362;2023-05-07T09:38:00;16.40;86.10
18694;DHT22;9477;51.414;10.362;2023-05-07T09:40:06;16.60;85.90
18694;DHT22;9477;51.414;10.362;2023-05-07T09:42:11;16.60;85.10
18694;DHT22;9477;51.414;10.362;2023-05-07T09:44:16;16.60;85.00
18694;DHT22;9477;51.414;10.362;2023-05-07T09:46:24;16.60;84.70
18694;DHT22;9477;51.414;10.362;2023-05-07T09:48:29;16.50;84.50
18694;DHT22;9477;51.414;10.362;2023-05-07T09:50:36;16.60;84.40
18694;DHT22;9477;51.414;10.362;2023-05-07T09:52:40;16.50;84.20
18694;DHT22;9477;51.414;10.362;2023-05-07T09:54:45;16.60;84.70
18694;DHT22;9477;51.414;10.362;2023-05-07T09:56:50;16.50;84.40
18694;DHT22;9477;51.414;10.362;2023-05-07T09:58:56;16.50;84.20
18694;DHT22;9477;51.414;10.362;2023-05-07T10:01:00;16.60;84.90
18694;DHT22;9477;51.414;10.362;2023-05-07T10:03:06;16.40;83.50
18694;DHT22;9477;51.414;10.362;2023-05-07T10:05:10;16.70;84.50
18694;DHT22;9477;51.414;10.362;2023-05-07T10:07:14;16.80;83.90
18694;DHT22;9477;51.414;10.362;2023-05-07T10:09:18;16.80;83.90
18694;DHT22;9477;51.414;10.362;2023-05-07T10:11:23;16.90;84.10
18694;DHT22;9477;51.414;10.362;2023-05-07T10:13:26;16.80;83.40
18694;DHT22;9477;51.414;10.362;2023-05-07T10:15:29;17.00;83.70
18694;DHT22;9477;51.414;10.362;2023-05-07T10:17:32;16.90;83.60
18694;DHT22;9477;51.414;10.362;2023-05-07T10:19:37;17.00;83.50
18694;DHT22;9477;51.414;10.362;2023-05-07T10:21:44;17.10;83.30
18694;DHT22;9477;51.414;10.362;2023-05-07T10:23:50;17.20;83.20
18694;DHT22;9477;51.414;10.362;2023-05-07T10:25:54;17.20;82.90
18694;DHT22;9477;51.414;10.362;2023-05-07T10:28:06;17.30;82.60
18694;DHT22;9477;51.414;10.362;2023-05-07T10:30:17;17.30;82.50
18694;DHT22;9477;51.414;10.362;2023-05-07T10:32:33;17.20;82.50
18694;DHT22;9477;51.414;10.362;2023-05-07T10:34:42;17.40;82.50
18694;DHT22;9477;51.414;10.362;2023-05-07T10:36:46;17.50;82.20
18694;DHT22;9477;51.414;10.362;2023-05-07T10:38:49;17.50;81.60
18694;DHT22;9477;51.414;10.362;2023-05-07T10:40:52;17.50;81.20
18694;DHT22;9477;51.414;10.362;2023-05-07T10:42:56;17.60;81.30
18694;DHT22;9477;51.414;10.362;2023-05-07T10:45:13;17.60;80.90
18694;DHT22;9477;51.414;10.362;2023-05-07T10:47:17;17.60;80.90
18694;DHT22;9477;51.414;10.362;2023-05-07T10:49:20;17.60;81.10
18694;DHT22;9477;51.414;10.362;2023-05-07T10:51:25;17.60;80.50
18694;DHT22;9477;51.414;10.362;2023-05-07T10:53:28;17.60;81.10
18694;DHT22;9477;51.414;10.362;2023-05-07T10:55:31;17.70;81.20
18694;DHT22;9477;51.414;10.362;2023-05-07T10:57:34;17.40;79.50
18694;DHT22;9477;51.414;10.362;2023-05-07T10:59:38;17.30;80.60
18694;DHT22;9477;51.414;10.362;2023-05-07T11:01:53;17.20;80.60
18694;DHT22;9477;51.414;10.362;2023-05-07T11:04:14;17.40;81.00
18694;DHT22;9477;51.414;10.362;2023-05-07T11:06:19;17.40;80.80
18694;DHT22;9477;51.414;10.362;2023-05-07T11:08:21;17.50;81.30
18694;DHT22;9477;51.414;10.362;2023-05-07T11:10:47;17.70;81.10
18694;DHT22;9477;51.414;10.362;2023-05-07T11:12:54;17.80;80.20
18694;DHT22;9477;51.414;10.362;2023-05-07T11:14:58;17.80;80.20
18694;DHT22;9477;51.414;10.362;2023-05-07T11:17:03;17.90;79.80
18694;DHT22;9477;51.414;10.362;2023-05-07T11:19:06;17.90;80.20
18694;DHT22;9477;51.414;10.362;2023-05-07T11:21:09;18.00;79.70
18694;DHT22;9477;51.414;10.362;2023-05-07T11:26:03;17.90;78.70
18694;DHT22;9477;51.414;10.362;2023-05-07T11:28:07;18.00;79.40
18694;DHT22;9477;51.414;10.362;2023-05-07T11:30:16;17.90;78.80
18694;DHT22;9477;51.414;10.362;2023-05-07T11:32:24;18.30;79.40
18694;DHT22;9477;51.414;10.362;2023-05-07T11:34:27;18.40;78.80
18694;DHT22;9477;51.414;10.362;2023-05-07T11:36:31;18.50;78.50
18694;DHT22;9477;51.414;10.362;2023-05-07T11:38:36;18.50;77.80
18694;DHT22;9477;51.414;10.362;2023-05-07T11:40:49;18.50;77.90
18694;DHT22;9477;51.414;10.362;2023-05-07T11:42:52;18.60;77.70
18694;DHT22;9477;51.414;10.362;2023-05-07T11:44:55;18.60;77.10
18694;DHT22;9477;51.414;10.362;2023-05-07T11:46:58;18.60;76.90
18694;DHT22;9477;51.414;10.362;2023-05-07T11:49:03;18.60;76.90
18694;DHT22;9477;51.414;10.362;2023-05-07T11:51:07;18.40;76.70
18694;DHT22;9477;51.414;10.362;2023-05-07T11:53:13;18.50;77.60
18694;DHT22;9477;51.414;10.362;2023-05-07T11:55:19;18.50;77.10
18694;DHT22;9477;51.414;10.362;2023-05-07T11:57:22;18.40;76.50
18694;DHT22;9477;51.414;10.362;2023-05-07T11:59:25;18.30;77.10
18694;DHT22;9477;51.414;10.362;2023-05-07T12:01:28;18.40;77.50
18694;DHT22;9477;51.414;10.362;2023-05-07T12:03:31;18.70;77.90
18694;DHT22;9477;51.414;10.362;2023-05-07T12:05:38;18.80;77.40
18694;DHT22;9477;51.414;10.362;2023-05-07T12:07:43;18.90;76.60
18694;DHT22;9477;51.414;10.362;2023-05-07T12:09:46;19.20;77.10
18694;DHT22;9477;51.414;10.362;2023-05-07T12:11:51;19.10;75.90
18694;DHT22;9477;51.414;10.362;2023-05-07T12:13:55;19.10;75.40
18694;DHT22;9477;51.414;10.362;2023-05-07T12:16:00;19.10;75.40
18694;DHT22;9477;51.414;10.362;2023-05-07T12:18:05;19.10;75.80
18694;DHT22;9477;51.414;10.362;2023-05-07T12:20:08;19.10;75.30
18694;DHT22;9477;51.414;10.362;2023-05-07T12:22:13;19.30;75.60
18694;DHT22;9477;51.414;10.362;2023-05-07T12:24:16;19.40;75.50
18694;DHT22;9477;51.414;10.362;2023-05-07T12:26:22;19.40;74.40
18694;DHT22;9477;51.414;10.362;2023-05-07T12:28:26;19.50;74.70
18694;DHT22;9477;51.414;10.362;2023-05-07T12:30:29;19.50;74.60
18694;DHT22;9477;51.414;10.362;2023-05-07T12:32:32;19.60;74.30
18694;DHT22;9477;51.414;10.362;2023-05-07T12:34:38;19.70;74.40
18694;DHT22;9477;51.414;10.362;2023-05-07T12:36:48;19.90;74.10
18694;DHT22;9477;51.414;10.362;2023-05-07T12:38:54;20.00;73.20
18694;DHT22;9477;51.414;10.362;2023-05-07T12:40:57;19.90;72.70
18694;DHT22;9477;51.414;10.362;2023-05-07T12:43:00;20.10;73.40
18694;DHT22;9477;51.414;10.362;2023-05-07T12:45:08;20.10;72.60
18694;DHT22;9477;51.414;10.362;2023-05-07T12:47:12;20.00;71.90
18694;DHT22;9477;51.414;10.362;2023-05-07T12:49:15;19.90;71.90
18694;DHT22;9477;51.414;10.362;2023-05-07T12:51:19;20.20;73.20
18694;DHT22;9477;51.414;10.362;2023-05-07T12:53:24;20.20;72.00
18694;DHT22;9477;51.414;10.362;2023-05-07T12:55:29;20.40;72.40
18694;DHT22;9477;51.414;10.362;2023-05-07T12:57:39;20.60;71.90
18694;DHT22;9477;51.414;10.362;2023-05-07T12:59:42;20.80;71.90
18694;DHT22;9477;51.414;10.362;2023-05-07T13:01:48;21.00;71.20
18694;DHT22;9477;51.414;10.362;2023-05-07T13:03:51;21.10;70.40
18694;DHT22;9477;51.414;10.362;2023-05-07T13:05:55;21.30;70.80